Time;durP1;ratioP1;P1;durP2;ratioP2;P2;SDS_P1;SDS_P2;PMS_P1;PMS_P2;Temp;Humidity;BMP_temperature;BMP_pressure;BME280_temperature;BME280_humidity;BME280_pressure;Samples;Min_cycle;Max_cycle;Signal;HPM_P1;HPM_P2
2022/10/14 00:01:34;;;;;;;9.75;7.25;;;16.00;85.30;;;;;;5017982;28;20084;-61
2022/10/14 00:03:59;;;;;;;8.15;7.05;;;16.00;85.20;;;;;;4998532;28;20036;-62
2022/10/14 00:06:30;;;;;;;9.10;6.90;;;16.00;85.20;;;;;;5017257;28;20045;-61
2022/10/14 00:08:59;;;;;;;8.00;6.43;;;15.90;85.30;;;;;;5016072;28;20437;-61
2022/10/14 00:11:28;;;;;;;8.10;5.78;;;15.90;85.20;;;;;;5015079;28;20132;-61
2022/10/14 00:13:55;;;;;;;7.20;5.93;;;15.90;85.20;;;;;;5017508;28;20083;-59
2022/10/14 00:16:25;;;;;;;6.32;5.53;;;15.90;85.20;;;;;;5018145;28;20033;-59
2022/10/14 00:18:51;;;;;;;6.57;5.75;;;15.90;85.20;;;;;;5017918;28;20111;-60
2022/10/14 00:21:17;;;;;;;7.22;5.88;;;15.90;85.20;;;;;;5015496;28;20128;-61
2022/10/14 00:23:43;;;;;;;5.85;5.22;;;15.90;85.10;;;;;;5015443;28;21659;-60
2022/10/14 00:26:21;;;;;;;10.48;5.88;;;15.90;85.10;;;;;;5015373;28;20052;-60
2022/10/14 00:28:47;;;;;;;7.47;5.43;;;15.90;85.10;;;;;;5015251;28;20052;-60
2022/10/14 00:31:13;;;;;;;9.15;5.55;;;15.80;84.90;;;;;;5015940;28;20120;-61
2022/10/14 00:33:40;;;;;;;8.65;5.57;;;15.80;84.90;;;;;;5016270;28;20136;-60
2022/10/14 00:36:07;;;;;;;10.00;5.47;;;15.80;85.00;;;;;;5014170;28;20587;-60
2022/10/14 00:38:33;;;;;;;8.13;5.60;;;15.70;85.00;;;;;;5015680;28;20509;-61
2022/10/14 00:40:59;;;;;;;6.95;5.60;;;15.80;85.10;;;;;;5015216;28;20048;-60
2022/10/14 00:43:26;;;;;;;6.25;5.60;;;15.70;85.10;;;;;;5014598;28;20041;-61
2022/10/14 00:45:52;;;;;;;11.05;5.45;;;15.70;85.30;;;;;;5015568;28;20071;-62
2022/10/14 00:48:20;;;;;;;9.80;5.68;;;15.70;85.30;;;;;;5015571;28;20037;-61
2022/10/14 00:50:49;;;;;;;9.65;5.68;;;15.70;85.50;;;;;;5008118;28;20061;-61
2022/10/14 00:53:15;;;;;;;8.65;5.95;;;15.70;85.50;;;;;;5015094;28;20033;-62
2022/10/14 00:55:41;;;;;;;8.27;5.57;;;15.60;85.50;;;;;;5015446;28;20041;-61
2022/10/14 00:58:08;;;;;;;7.22;5.93;;;15.60;85.50;;;;;;5016166;28;20042;-60
2022/10/14 01:00:34;;;;;;;8.82;5.88;;;15.60;85.70;;;;;;5018877;28;20072;-60
2022/10/14 01:03:00;;;;;;;8.40;5.93;;;15.60;85.70;;;;;;5015614;28;20057;-60
2022/10/14 01:05:43;;;;;;;9.32;5.97;;;15.60;85.80;;;;;;5016094;28;20041;-61
2022/10/14 01:08:21;;;;;;;9.63;6.10;;;15.60;86.20;;;;;;5014401;28;20401;-61
2022/10/14 01:11:10;;;;;;;6.55;5.50;;;15.50;86.00;;;;;;5013044;28;20230;-60
2022/10/14 01:14:00;;;;;;;7.18;5.47;;;15.50;86.20;;;;;;5014434;28;20064;-60
2022/10/14 01:16:45;;;;;;;9.45;5.72;;;15.50;86.20;;;;;;5014893;28;20033;-61
2022/10/14 01:19:36;;;;;;;10.75;5.88;;;15.50;86.00;;;;;;5015730;28;20061;-60
2022/10/14 01:22:09;;;;;;;9.63;5.55;;;15.50;86.20;;;;;;5013035;28;20093;-61
2022/10/14 01:24:48;;;;;;;9.65;5.93;;;15.50;85.90;;;;;;5013019;28;20037;-61
2022/10/14 01:27:31;;;;;;;7.15;5.85;;;15.50;86.10;;;;;;5018691;28;20576;-61
2022/10/14 01:30:21;;;;;;;8.93;5.55;;;15.50;86.10;;;;;;5019647;28;20041;-62
2022/10/14 01:33:10;;;;;;;6.72;5.30;;;15.50;86.30;;;;;;5020170;28;20144;-63
2022/10/14 01:35:48;;;;;;;7.00;5.18;;;15.50;86.30;;;;;;5020173;28;20046;-62
2022/10/14 01:38:21;;;;;;;9.30;5.88;;;15.50;86.10;;;;;;5019697;28;20063;-62
2022/10/14 01:40:55;;;;;;;8.07;5.18;;;15.50;86.00;;;;;;5018780;28;20038;-62
2022/10/14 01:43:24;;;;;;;6.75;5.50;;;15.50;86.00;;;;;;5019166;28;20059;-62
2022/10/14 01:45:52;;;;;;;7.07;5.35;;;15.50;85.90;;;;;;5018944;28;20511;-62
2022/10/14 01:48:23;;;;;;;6.50;5.20;;;15.40;85.90;;;;;;5019886;28;20049;-62
2022/10/14 01:50:51;;;;;;;6.95;5.15;;;15.40;86.00;;;;;;5018751;28;20358;-61
2022/10/14 01:53:24;;;;;;;7.10;5.07;;;15.40;86.20;;;;;;5019026;28;20050;-62
2022/10/14 01:55:53;;;;;;;8.70;5.45;;;15.40;86.40;;;;;;5019701;28;20124;-62
2022/10/14 01:58:23;;;;;;;8.05;5.38;;;15.40;87.00;;;;;;5018670;28;20301;-62
2022/10/14 02:00:48;;;;;;;7.50;5.10;;;15.40;86.20;;;;;;5018453;28;20041;-62
2022/10/14 02:03:14;;;;;;;7.85;5.13;;;15.40;86.30;;;;;;5018937;28;20033;-62
2022/10/14 02:05:49;;;;;;;8.70;5.25;;;15.40;86.40;;;;;;5021056;28;20056;-61
2022/10/14 02:08:50;;;;;;;6.53;5.35;;;15.40;86.70;;;;;;5019898;28;20045;-62
2022/10/14 02:11:20;;;;;;;7.13;5.53;;;15.40;86.70;;;;;;5017847;28;20615;-62
2022/10/14 02:14:10;;;;;;;8.13;5.20;;;15.40;86.50;;;;;;5014552;28;20132;-61
2022/10/14 02:16:40;;;;;;;9.98;5.80;;;15.30;87.60;;;;;;5018367;28;20124;-62
2022/10/14 02:19:22;;;;;;;5.75;5.18;;;15.30;86.50;;;;;;5018446;28;20026;-62
2022/10/14 02:21:55;;;;;;;5.50;4.80;;;15.40;86.80;;;;;;5018549;28;20036;-62
2022/10/14 02:24:26;;;;;;;7.47;5.20;;;15.30;86.70;;;;;;5018745;28;20073;-59
2022/10/14 02:26:56;;;;;;;7.22;5.20;;;15.30;86.70;;;;;;5015986;28;20042;-62
2022/10/14 02:29:23;;;;;;;8.05;5.72;;;15.30;86.70;;;;;;5017301;28;20041;-62
2022/10/14 02:31:50;;;;;;;7.50;5.05;;;15.30;86.70;;;;;;5017201;28;20404;-62
2022/10/14 02:34:20;;;;;;;8.27;5.35;;;15.30;86.70;;;;;;5017382;28;20045;-60
2022/10/14 02:36:47;;;;;;;7.45;5.20;;;15.30;86.90;;;;;;5018518;28;20038;-62
2022/10/14 02:39:16;;;;;;;7.80;4.68;;;15.30;86.80;;;;;;5017209;28;20088;-60
2022/10/14 02:41:42;;;;;;;6.88;5.13;;;15.30;86.90;;;;;;5017859;28;20428;-62
2022/10/14 02:44:08;;;;;;;7.78;5.07;;;15.30;86.70;;;;;;5018601;28;20030;-62
2022/10/14 02:46:34;;;;;;;5.93;4.78;;;15.40;86.80;;;;;;5018337;28;20565;-61
2022/10/14 02:49:00;;;;;;;7.90;5.15;;;15.30;86.70;;;;;;5017815;28;20306;-62
2022/10/14 02:51:26;;;;;;;5.15;4.65;;;15.30;86.60;;;;;;5019559;28;20026;-61
2022/10/14 02:53:51;;;;;;;6.38;4.75;;;15.30;86.60;;;;;;5019131;28;20030;-62
2022/10/14 02:56:18;;;;;;;7.97;5.28;;;15.40;86.60;;;;;;5017408;28;20033;-60
2022/10/14 02:58:43;;;;;;;7.05;6.07;;;15.30;86.50;;;;;;5017868;28;20029;-60
2022/10/14 03:01:09;;;;;;;9.40;5.63;;;15.40;86.50;;;;;;5015704;28;20047;-60
2022/10/14 03:03:34;;;;;;;7.40;5.25;;;15.40;86.50;;;;;;5016316;28;20026;-62
2022/10/14 03:06:00;;;;;;;8.02;5.53;;;15.40;86.40;;;;;;5017150;28;20042;-61
2022/10/14 03:08:26;;;;;;;9.50;5.40;;;15.40;86.40;;;;;;5016992;28;20273;-60
2022/10/14 03:10:51;;;;;;;7.18;5.18;;;15.40;86.50;;;;;;5016584;28;20037;-62
2022/10/14 03:13:17;;;;;;;12.02;8.35;;;15.40;86.40;;;;;;5016556;28;20113;-62
2022/10/14 03:15:43;;;;;;;11.02;6.97;;;15.40;86.20;;;;;;5017255;28;20067;-60
2022/10/14 03:18:08;;;;;;;10.25;7.80;;;15.40;86.20;;;;;;5014038;28;20402;-61
2022/10/14 03:20:34;;;;;;;12.48;8.77;;;15.40;86.20;;;;;;5017166;28;20072;-62
2022/10/14 03:22:59;;;;;;;10.48;9.18;;;15.40;86.20;;;;;;5017737;28;20057;-60
2022/10/14 03:25:25;;;;;;;10.02;7.85;;;15.30;86.20;;;;;;5016288;28;20104;-61
2022/10/14 03:27:50;;;;;;;11.25;7.00;;;15.30;86.30;;;;;;5016051;28;20038;-61
2022/10/14 03:30:16;;;;;;;8.27;6.45;;;15.30;86.40;;;;;;5014434;28;20041;-61
2022/10/14 03:32:42;;;;;;;6.93;5.82;;;15.30;86.40;;;;;;5016502;28;20092;-61
2022/10/14 03:35:09;;;;;;;7.30;6.05;;;15.30;86.40;;;;;;5015845;28;20128;-59
2022/10/14 03:37:34;;;;;;;7.80;5.72;;;15.30;86.40;;;;;;5015072;28;20365;-61
2022/10/14 03:40:00;;;;;;;9.00;5.68;;;15.30;86.80;;;;;;5016525;28;20417;-61
2022/10/14 03:42:26;;;;;;;8.68;5.82;;;15.30;86.40;;;;;;5014509;28;20034;-61
2022/10/14 03:44:51;;;;;;;7.90;6.15;;;15.30;86.40;;;;;;5016328;28;20397;-60
2022/10/14 03:47:17;;;;;;;8.60;5.80;;;15.20;86.50;;;;;;5013427;28;20030;-61
2022/10/14 03:49:42;;;;;;;7.68;6.10;;;15.20;86.50;;;;;;5014605;28;20037;-62
2022/10/14 03:52:08;;;;;;;7.35;6.10;;;15.30;86.60;;;;;;5015759;28;20037;-59
2022/10/14 03:54:33;;;;;;;10.38;6.40;;;15.20;86.60;;;;;;5014777;28;20038;-60
2022/10/14 03:56:59;;;;;;;8.95;6.10;;;15.20;86.70;;;;;;5014219;28;20040;-60
2022/10/14 03:59:24;;;;;;;8.95;6.35;;;15.20;86.70;;;;;;5014991;28;20038;-62
2022/10/14 04:01:50;;;;;;;9.20;5.82;;;15.20;86.90;;;;;;5013626;28;20034;-60
2022/10/14 04:04:16;;;;;;;7.00;5.82;;;15.10;86.90;;;;;;5017936;28;20116;-61
2022/10/14 04:06:41;;;;;;;12.10;6.10;;;15.10;87.00;;;;;;5013258;28;20052;-61
2022/10/14 04:09:07;;;;;;;7.45;5.95;;;15.10;87.90;;;;;;5014334;28;20620;-61
2022/10/14 04:11:32;;;;;;;15.73;6.05;;;15.10;87.10;;;;;;5011549;28;20053;-60
2022/10/14 04:13:59;;;;;;;7.22;6.35;;;15.10;87.10;;;;;;5015461;28;21119;-61
2022/10/14 04:16:25;;;;;;;7.03;6.05;;;15.10;87.20;;;;;;5014172;28;20042;-59
2022/10/14 04:18:51;;;;;;;7.78;6.45;;;15.10;87.20;;;;;;5015444;28;20360;-60
2022/10/14 04:21:17;;;;;;;9.55;6.80;;;15.10;87.30;;;;;;5013878;28;20033;-59
2022/10/14 04:23:42;;;;;;;9.65;6.95;;;15.20;87.30;;;;;;5014753;28;20030;-60
2022/10/14 04:26:09;;;;;;;11.38;6.32;;;15.10;87.30;;;;;;5016145;28;20025;-60
2022/10/14 04:28:35;;;;;;;9.48;7.18;;;15.10;87.20;;;;;;5014755;28;20049;-61
2022/10/14 04:31:01;;;;;;;10.80;6.80;;;15.10;87.20;;;;;;5017074;28;20033;-60
2022/10/14 04:33:27;;;;;;;10.98;6.95;;;15.10;87.30;;;;;;5015740;28;20030;-61
2022/10/14 04:35:57;;;;;;;9.38;6.70;;;15.10;88.10;;;;;;5016494;28;20045;-60
2022/10/14 04:38:23;;;;;;;9.65;6.65;;;15.20;87.40;;;;;;5014121;28;20034;-59
2022/10/14 04:40:48;;;;;;;7.30;6.35;;;15.10;87.30;;;;;;5014726;28;20040;-61
2022/10/14 04:43:14;;;;;;;10.93;7.20;;;15.20;87.40;;;;;;5014606;28;20044;-60
2022/10/14 04:45:40;;;;;;;8.20;7.15;;;15.10;87.30;;;;;;5016172;28;20159;-60
2022/10/14 04:48:06;;;;;;;9.10;6.72;;;15.10;87.30;;;;;;5016597;28;20115;-60
2022/10/14 04:50:32;;;;;;;8.48;6.82;;;15.10;87.10;;;;;;5015549;28;20068;-60
2022/10/14 04:52:57;;;;;;;12.35;7.95;;;15.10;87.00;;;;;;5014991;28;20037;-62
2022/10/14 04:55:23;;;;;;;24.90;14.38;;;15.10;87.00;;;;;;5016887;28;20045;-60
2022/10/14 04:57:48;;;;;;;16.38;10.70;;;15.10;87.00;;;;;;5013863;28;20084;-61
2022/10/14 05:00:14;;;;;;;13.25;9.07;;;15.10;86.90;;;;;;5015317;28;20037;-60
2022/10/14 05:02:40;;;;;;;18.08;13.80;;;15.00;86.90;;;;;;5014828;28;20037;-60
2022/10/14 05:05:06;;;;;;;14.77;10.48;;;15.00;86.90;;;;;;5013798;28;20056;-60
2022/10/14 05:07:33;;;;;;;12.02;8.15;;;15.10;86.90;;;;;;5012507;28;20045;-60
2022/10/14 05:10:00;;;;;;;11.85;8.13;;;15.10;86.90;;;;;;5013280;28;20509;-62
2022/10/14 05:12:26;;;;;;;12.77;9.85;;;15.00;86.70;;;;;;5012553;28;20068;-61
2022/10/14 05:14:52;;;;;;;11.35;9.13;;;15.00;86.80;;;;;;5016200;28;20595;-61
2022/10/14 05:17:17;;;;;;;11.90;8.68;;;15.00;86.90;;;;;;5014697;28;20053;-62
2022/10/14 05:19:43;;;;;;;12.70;8.38;;;15.00;87.00;;;;;;5015572;28;20041;-62
2022/10/14 05:22:08;;;;;;;12.05;8.15;;;15.00;87.10;;;;;;5012653;28;20087;-62
2022/10/14 05:24:34;;;;;;;10.32;7.85;;;15.00;87.10;;;;;;5011958;28;20063;-62
2022/10/14 05:27:00;;;;;;;13.38;8.38;;;15.00;87.20;;;;;;5012515;28;20030;-62
2022/10/14 05:29:25;;;;;;;13.10;7.68;;;15.00;87.20;;;;;;5013352;28;20204;-62
2022/10/14 05:31:51;;;;;;;13.07;8.40;;;14.90;87.10;;;;;;5016993;28;20042;-62
2022/10/14 05:34:16;;;;;;;11.55;8.57;;;15.00;87.30;;;;;;5015390;28;21996;-62
2022/10/14 05:36:42;;;;;;;10.13;7.20;;;15.00;87.40;;;;;;5013999;28;20048;-62
2022/10/14 05:39:09;;;;;;;9.90;7.32;;;15.00;87.40;;;;;;5015257;28;20030;-62
2022/10/14 05:41:34;;;;;;;10.23;7.65;;;15.00;87.60;;;;;;5015404;28;20100;-62
2022/10/14 05:44:00;;;;;;;12.88;8.63;;;14.90;87.50;;;;;;5016059;28;20037;-61
2022/10/14 05:46:25;;;;;;;13.23;9.25;;;14.90;87.40;;;;;;5013791;28;20508;-60
2022/10/14 05:48:51;;;;;;;14.00;8.55;;;15.00;87.50;;;;;;5014631;28;20060;-60
2022/10/14 05:51:19;;;;;;;9.68;7.53;;;15.00;87.30;;;;;;5015118;28;20048;-62
2022/10/14 05:53:46;;;;;;;10.57;7.65;;;15.00;88.10;;;;;;5014622;28;20430;-60
2022/10/14 05:56:11;;;;;;;11.10;8.20;;;15.00;87.20;;;;;;5012083;28;20051;-62
2022/10/14 05:58:37;;;;;;;8.65;7.55;;;15.00;87.20;;;;;;5014773;28;20049;-62
2022/10/14 06:01:05;;;;;;;10.68;8.63;;;15.00;87.10;;;;;;5015637;28;20037;-62
2022/10/14 06:03:32;;;;;;;10.65;7.75;;;15.00;87.10;;;;;;5013417;28;20508;-62
2022/10/14 06:05:57;;;;;;;9.20;7.63;;;14.90;87.00;;;;;;5013766;28;20070;-62
2022/10/14 06:08:23;;;;;;;10.80;7.63;;;15.00;87.20;;;;;;5014798;28;20046;-61
2022/10/14 06:10:50;;;;;;;9.50;6.70;;;15.00;87.40;;;;;;5013067;28;20418;-61
2022/10/14 06:13:15;;;;;;;9.25;6.95;;;14.90;87.30;;;;;;5019792;28;20061;-62
2022/10/14 06:15:41;;;;;;;7.85;6.93;;;15.00;87.30;;;;;;5017931;28;20358;-61
2022/10/14 06:18:07;;;;;;;9.75;6.78;;;14.90;87.30;;;;;;5017408;28;20046;-62
2022/10/14 06:20:33;;;;;;;9.02;7.22;;;14.90;87.40;;;;;;5015400;28;20041;-62
2022/10/14 06:22:59;;;;;;;8.43;6.03;;;15.00;87.50;;;;;;5018568;28;20091;-62
2022/10/14 06:25:25;;;;;;;9.80;6.75;;;14.90;87.60;;;;;;5017335;28;20046;-62
2022/10/14 06:27:50;;;;;;;8.95;6.45;;;14.90;87.50;;;;;;5016842;28;20107;-61
2022/10/14 06:30:16;;;;;;;7.53;6.07;;;14.90;87.60;;;;;;5016626;28;20447;-61
2022/10/14 06:32:42;;;;;;;8.40;6.60;;;14.90;87.80;;;;;;5017822;28;20034;-62
2022/10/14 06:35:08;;;;;;;10.43;6.82;;;14.90;87.80;;;;;;5015237;28;20097;-61
2022/10/14 06:37:34;;;;;;;9.13;6.65;;;14.90;87.90;;;;;;5016804;28;20041;-62
2022/10/14 06:39:59;;;;;;;8.82;5.90;;;14.90;87.90;;;;;;5017907;28;20056;-60
2022/10/14 06:42:25;;;;;;;8.65;7.07;;;14.90;87.90;;;;;;5014048;28;20026;-60
2022/10/14 06:44:50;;;;;;;10.00;7.20;;;15.00;87.90;;;;;;5018078;28;20038;-61
2022/10/14 06:47:16;;;;;;;11.70;6.82;;;15.00;88.00;;;;;;5015196;28;20049;-61
2022/10/14 06:49:42;;;;;;;9.38;6.78;;;15.00;88.00;;;;;;5018020;28;20410;-60
2022/10/14 06:52:07;;;;;;;11.95;6.25;;;15.00;88.10;;;;;;5017693;28;20049;-61
2022/10/14 06:54:33;;;;;;;8.45;6.22;;;15.00;88.10;;;;;;5018298;28;20037;-60
2022/10/14 06:56:59;;;;;;;9.70;6.38;;;15.10;88.20;;;;;;5019513;28;20029;-61
2022/10/14 06:59:27;;;;;;;9.60;6.03;;;15.10;88.10;;;;;;5018350;28;20037;-62
2022/10/14 07:01:52;;;;;;;9.23;5.88;;;15.10;88.10;;;;;;5017048;28;20497;-60
2022/10/14 07:04:18;;;;;;;8.13;6.05;;;15.10;88.00;;;;;;5018370;28;20095;-60
2022/10/14 07:06:43;;;;;;;8.65;5.90;;;15.10;88.00;;;;;;5016744;28;20720;-61
2022/10/14 07:09:09;;;;;;;13.75;6.30;;;15.20;88.00;;;;;;5017161;28;20034;-61
2022/10/14 07:11:35;;;;;;;10.43;6.55;;;15.20;88.00;;;;;;5015950;28;20030;-61
2022/10/14 07:14:00;;;;;;;18.67;11.68;;;15.20;88.10;;;;;;5015090;28;20107;-60
2022/10/14 07:16:27;;;;;;;17.13;10.85;;;15.20;88.00;;;;;;5015350;28;20045;-62
2022/10/14 07:18:52;;;;;;;13.60;7.80;;;15.30;88.00;;;;;;5014972;28;20445;-61
2022/10/14 07:21:18;;;;;;;8.65;6.55;;;15.30;88.00;;;;;;5017010;28;20044;-61
2022/10/14 07:23:44;;;;;;;9.10;5.38;;;15.30;88.00;;;;;;5015869;28;20053;-60
2022/10/14 07:26:09;;;;;;;10.55;5.88;;;15.40;88.00;;;;;;5018473;28;20034;-62
2022/10/14 07:28:35;;;;;;;9.60;5.47;;;15.40;87.90;;;;;;5016289;28;20552;-61
2022/10/14 07:31:09;;;;;;;10.43;5.53;;;15.40;87.80;;;;;;5018254;28;20068;-60
2022/10/14 07:33:36;;;;;;;7.90;5.53;;;15.50;88.00;;;;;;5015731;28;20046;-60
2022/10/14 07:36:05;;;;;;;9.93;5.20;;;15.50;87.90;;;;;;5016900;28;20088;-61
2022/10/14 07:38:31;;;;;;;9.43;5.80;;;15.60;88.00;;;;;;5017421;28;20057;-60
2022/10/14 07:40:59;;;;;;;7.80;5.10;;;15.60;87.90;;;;;;5017623;28;20125;-60
2022/10/14 07:43:25;;;;;;;5.90;5.10;;;15.60;87.60;;;;;;5016291;28;20648;-62
2022/10/14 07:45:50;;;;;;;5.38;4.10;;;15.70;87.50;;;;;;5016801;28;20136;-59
2022/10/14 07:48:16;;;;;;;6.22;3.20;;;15.70;87.40;;;;;;5015979;28;20037;-62
2022/10/14 07:50:42;;;;;;;4.50;3.17;;;15.70;87.30;;;;;;5016285;28;20091;-62
2022/10/14 07:53:07;;;;;;;5.90;2.70;;;15.80;87.00;;;;;;5017137;28;20528;-59
2022/10/14 07:55:33;;;;;;;4.88;2.50;;;15.80;86.90;;;;;;5017409;28;20066;-61
2022/10/14 07:57:58;;;;;;;4.65;2.75;;;15.80;86.70;;;;;;5018024;28;20084;-61
2022/10/14 08:00:24;;;;;;;4.00;2.88;;;15.80;86.40;;;;;;5015518;28;20598;-62
2022/10/14 08:02:49;;;;;;;5.47;2.80;;;15.80;86.30;;;;;;5013383;28;20662;-61
2022/10/14 08:05:15;;;;;;;6.95;2.55;;;15.80;86.20;;;;;;5018953;28;20079;-60
2022/10/14 08:07:41;;;;;;;5.28;2.75;;;15.80;86.10;;;;;;5016272;28;20520;-59
2022/10/14 08:10:06;;;;;;;4.75;2.42;;;15.90;86.10;;;;;;5016058;28;20518;-60
2022/10/14 08:12:32;;;;;;;5.65;2.38;;;15.90;86.00;;;;;;5012708;28;20395;-61
2022/10/14 08:14:57;;;;;;;3.35;2.17;;;15.90;86.20;;;;;;5016576;28;20076;-60
2022/10/14 08:17:23;;;;;;;4.00;2.38;;;15.90;86.20;;;;;;5017303;28;20406;-62
2022/10/14 08:19:49;;;;;;;5.90;2.67;;;15.90;86.10;;;;;;5015878;28;20033;-61
2022/10/14 08:22:15;;;;;;;7.50;2.63;;;15.90;86.20;;;;;;5016773;28;20515;-62
2022/10/14 08:24:41;;;;;;;3.50;2.42;;;15.90;86.20;;;;;;5017709;28;20129;-61
2022/10/14 08:27:08;;;;;;;4.93;2.70;;;15.90;86.20;;;;;;5017735;28;20029;-61
2022/10/14 08:29:34;;;;;;;5.38;3.00;;;15.90;86.30;;;;;;5018774;28;20042;-60
2022/10/14 08:32:00;;;;;;;3.65;3.28;;;15.90;86.40;;;;;;5015917;28;20029;-60
2022/10/14 08:34:26;;;;;;;7.38;2.70;;;15.90;86.20;;;;;;5017392;28;20062;-62
2022/10/14 08:36:52;;;;;;;6.25;2.25;;;15.90;86.10;;;;;;5017278;28;20038;-61
2022/10/14 08:39:18;;;;;;;4.35;2.38;;;15.90;86.30;;;;;;5017430;28;20103;-61
2022/10/14 08:42:18;;;;;;;3.55;2.45;;;15.90;86.30;;;;;;5019056;28;20041;-61
2022/10/14 08:44:55;;;;;;;6.18;2.25;;;15.90;86.60;;;;;;5013063;28;21247;-60
2022/10/14 08:47:25;;;;;;;3.33;2.20;;;16.00;86.60;;;;;;5016476;28;20034;-62
2022/10/14 08:50:03;;;;;;;3.25;2.38;;;16.00;86.60;;;;;;5019300;28;20021;-61
2022/10/14 08:52:44;;;;;;;7.07;2.50;;;16.00;86.50;;;;;;5017819;28;20448;-62
2022/10/14 08:55:38;;;;;;;5.07;2.30;;;16.00;86.50;;;;;;5015232;28;20048;-61
2022/10/14 08:58:27;;;;;;;2.90;2.17;;;16.00;86.60;;;;;;5016418;28;20061;-62
2022/10/14 09:00:54;;;;;;;6.30;2.20;;;16.10;86.60;;;;;;5017723;28;20453;-60
2022/10/14 09:03:35;;;;;;;2.97;1.80;;;16.00;86.40;;;;;;5016054;28;20470;-62
2022/10/14 09:06:05;;;;;;;5.95;2.00;;;16.10;86.40;;;;;;5015152;28;20045;-62
2022/10/14 09:08:44;;;;;;;3.83;1.77;;;16.10;86.50;;;;;;5016599;28;20057;-62
2022/10/14 09:11:17;;;;;;;3.72;2.00;;;16.10;86.10;;;;;;5015499;28;20045;-62
2022/10/14 09:13:49;;;;;;;2.63;1.67;;;16.20;86.30;;;;;;5016744;28;20049;-61
2022/10/14 09:16:24;;;;;;;8.98;2.15;;;16.20;86.20;;;;;;5015216;28;20448;-62
2022/10/14 09:19:03;;;;;;;5.07;2.10;;;16.20;86.60;;;;;;5016579;28;20646;-62
2022/10/14 09:21:34;;;;;;;4.07;1.75;;;16.30;87.40;;;;;;5013209;28;20452;-62
2022/10/14 09:24:15;;;;;;;2.33;2.10;;;16.30;86.50;;;;;;5012596;28;20076;-60
2022/10/14 09:26:47;;;;;;;2.72;1.70;;;16.40;86.20;;;;;;5012740;28;20033;-61
2022/10/14 09:29:26;;;;;;;3.42;1.55;;;16.40;86.10;;;;;;5016777;28;20049;-63
2022/10/14 09:31:58;;;;;;;5.20;2.10;;;16.50;86.10;;;;;;5015780;28;20072;-62
2022/10/14 09:34:40;;;;;;;2.63;1.80;;;16.50;86.00;;;;;;5017408;28;20576;-62
2022/10/14 09:37:18;;;;;;;6.82;1.98;;;16.60;85.50;;;;;;5015657;28;20037;-62
2022/10/14 09:39:44;;;;;;;5.03;1.80;;;16.70;85.80;;;;;;5016404;28;20120;-61
2022/10/14 09:42:22;;;;;;;2.78;1.67;;;16.70;85.80;;;;;;5017500;28;20041;-61
2022/10/14 09:45:07;;;;;;;2.83;1.63;;;16.80;85.60;;;;;;5014109;28;20038;-62
2022/10/14 09:47:58;;;;;;;3.65;1.83;;;16.90;85.30;;;;;;5017795;28;20205;-63
2022/10/14 09:50:32;;;;;;;3.35;1.70;;;16.90;85.30;;;;;;5006232;28;20048;-62
2022/10/14 09:53:05;;;;;;;3.22;1.80;;;17.00;85.00;;;;;;5019404;28;20397;-62
2022/10/14 09:55:31;;;;;;;3.70;1.70;;;17.00;85.00;;;;;;5018442;28;20405;-62
2022/10/14 09:58:04;;;;;;;3.78;1.75;;;17.10;85.00;;;;;;5020256;28;20056;-63
2022/10/14 10:00:33;;;;;;;4.95;1.50;;;17.20;84.90;;;;;;5018484;28;20060;-61
2022/10/14 10:02:59;;;;;;;3.05;1.50;;;17.20;84.50;;;;;;5019635;28;20566;-62
2022/10/14 10:05:30;;;;;;;3.03;1.50;;;17.20;84.30;;;;;;5019442;28;20049;-61
2022/10/14 10:08:16;;;;;;;3.42;1.77;;;17.30;83.60;;;;;;5016171;28;20405;-61
2022/10/14 10:10:55;;;;;;;2.53;1.80;;;17.30;83.00;;;;;;5017938;28;20033;-63
2022/10/14 10:13:30;;;;;;;3.60;1.80;;;17.40;82.90;;;;;;5019286;28;20323;-63
2022/10/14 10:15:58;;;;;;;;;;;17.40;83.30;;;;;;5020159;28;20495;-61
2022/10/14 10:18:23;;;;;;;2.58;1.42;;;17.50;83.30;;;;;;5020609;28;19931;-61
2022/10/14 10:21:05;;;;;;;5.28;1.80;;;17.50;83.10;;;;;;5018887;28;20041;-63
2022/10/14 10:23:33;;;;;;;4.63;1.90;;;17.50;82.60;;;;;;5020156;28;20037;-60
2022/10/14 10:26:38;;;;;;;4.28;2.03;;;17.50;82.90;;;;;;5001820;28;20038;-62
2022/10/14 10:29:04;;;;;;;8.73;1.88;;;17.60;82.50;;;;;;4918568;29;20052;-62
2022/10/14 10:32:07;;;;;;;8.15;1.55;;;17.60;82.90;;;;;;4919389;29;20032;-62
2022/10/14 10:34:50;;;;;;;3.35;1.30;;;17.60;81.90;;;;;;4992163;28;20176;-63
2022/10/14 10:37:27;;;;;;;3.38;1.60;;;17.70;82.10;;;;;;5019308;28;20033;-63
2022/10/14 10:40:05;;;;;;;3.17;1.50;;;17.70;81.50;;;;;;5019565;28;20030;-62
2022/10/14 10:42:51;;;;;;;2.72;1.40;;;17.80;81.40;;;;;;5018993;28;20030;-62
2022/10/14 10:45:57;;;;;;;2.22;1.60;;;17.80;81.50;;;;;;5020472;28;20092;-62
2022/10/14 10:48:39;;;;;;;2.53;1.52;;;17.80;81.30;;;;;;5020202;28;20030;-61
2022/10/14 10:51:34;;;;;;;2.70;1.70;;;17.90;80.80;;;;;;5019106;28;20072;-63
2022/10/14 10:54:26;;;;;;;4.83;2.13;;;17.90;81.20;;;;;;4993238;28;20469;-60
2022/10/14 10:57:00;;;;;;;3.00;2.30;;;17.90;81.00;;;;;;5019123;28;20500;-63
2022/10/14 10:59:55;;;;;;;5.07;3.43;;;17.90;81.30;;;;;;5018761;28;20214;-63
2022/10/14 11:02:55;;;;;;;8.00;5.43;;;17.90;81.20;;;;;;5019763;28;20034;-63
2022/10/14 11:05:45;;;;;;;5.97;4.07;;;17.90;81.00;;;;;;5020023;28;20042;-62
2022/10/14 11:14:09;;;;;;;4.82;1.70;;;17.90;80.60;;;;;;5019890;28;20044;-63
2022/10/14 11:16:35;;;;;;;3.53;1.65;;;17.90;80.40;;;;;;5018652;28;20476;-63
2022/10/14 11:19:09;;;;;;;4.63;1.77;;;17.90;80.60;;;;;;5018388;28;20038;-62
2022/10/14 11:21:49;;;;;;;3.05;1.88;;;17.90;80.60;;;;;;5020209;28;20044;-62
2022/10/14 11:24:23;;;;;;;2.72;2.08;;;17.90;80.00;;;;;;5020319;28;20133;-61
2022/10/14 11:27:00;;;;;;;3.90;2.55;;;17.80;80.00;;;;;;5019405;28;20042;-62
2022/10/14 11:29:47;;;;;;;4.05;3.60;;;17.80;81.20;;;;;;5018990;28;20047;-63
2022/10/14 11:32:32;;;;;;;2.92;2.10;;;17.80;80.50;;;;;;5020536;28;20093;-62
2022/10/14 11:35:11;;;;;;;3.77;2.10;;;17.80;79.70;;;;;;5018050;28;20146;-63
2022/10/14 11:38:06;;;;;;;1.90;1.70;;;17.80;79.60;;;;;;5018310;28;20128;-63
2022/10/14 11:40:57;;;;;;;2.83;1.80;;;17.80;79.60;;;;;;5017822;28;20568;-63
2022/10/14 11:43:35;;;;;;;2.08;1.90;;;17.70;79.80;;;;;;4983808;28;20034;-63
2022/10/14 11:46:07;;;;;;;1.80;1.70;;;17.80;80.20;;;;;;5017534;28;20041;-62
2022/10/14 11:48:45;;;;;;;2.38;1.98;;;17.70;80.10;;;;;;5018604;28;20069;-63
2022/10/14 11:51:16;;;;;;;2.10;1.85;;;17.70;79.60;;;;;;5018306;28;20044;-63
2022/10/14 11:53:47;;;;;;;3.95;1.95;;;17.70;79.90;;;;;;5018296;28;20037;-61
2022/10/14 11:56:37;;;;;;;3.30;1.90;;;17.70;80.10;;;;;;5019299;28;20064;-63
2022/10/14 11:59:39;;;;;;;2.67;2.00;;;17.60;80.20;;;;;;5018764;28;20116;-62
2022/10/14 12:02:13;;;;;;;3.22;1.90;;;17.60;80.30;;;;;;5017933;28;20048;-63
2022/10/14 12:04:42;;;;;;;3.42;1.80;;;17.50;81.00;;;;;;5018568;28;20057;-64
2022/10/14 12:07:11;;;;;;;3.13;1.90;;;17.40;81.20;;;;;;5016686;28;20034;-63
2022/10/14 12:10:00;;;;;;;2.60;1.92;;;17.40;81.90;;;;;;5017619;28;20041;-62
2022/10/14 12:12:28;;;;;;;2.30;1.55;;;17.30;82.60;;;;;;5017841;28;20072;-62
2022/10/14 12:15:06;;;;;;;1.90;1.50;;;17.20;82.70;;;;;;5017824;28;20049;-62
2022/10/14 12:17:42;;;;;;;4.35;1.98;;;17.20;83.40;;;;;;5018198;28;20034;-62
2022/10/14 12:20:33;;;;;;;3.47;2.00;;;17.20;84.30;;;;;;5019153;28;20037;-63
2022/10/14 12:23:00;;;;;;;2.35;2.00;;;17.20;84.70;;;;;;5018001;28;20033;-63
2022/10/14 12:25:35;;;;;;;3.97;1.88;;;17.20;84.30;;;;;;5018527;28;20044;-63
2022/10/14 12:28:02;;;;;;;2.03;1.85;;;17.20;84.30;;;;;;5019412;28;20847;-63
2022/10/14 12:30:41;;;;;;;2.85;2.03;;;17.20;84.30;;;;;;5018659;28;20061;-63
2022/10/14 12:33:10;;;;;;;3.15;1.85;;;17.20;84.80;;;;;;5016043;28;20033;-62
2022/10/14 12:35:44;;;;;;;2.30;1.92;;;17.20;84.70;;;;;;5015704;28;20045;-62
2022/10/14 12:38:11;;;;;;;3.63;2.00;;;17.30;85.30;;;;;;5016371;28;20034;-62
2022/10/14 12:40:38;;;;;;;2.15;1.88;;;17.30;85.00;;;;;;5017053;28;20137;-63
2022/10/14 12:43:22;;;;;;;3.47;1.80;;;17.30;85.10;;;;;;5018632;28;20136;-63
2022/10/14 12:46:13;;;;;;;2.35;2.03;;;17.30;85.90;;;;;;5014891;28;20033;-63
2022/10/14 12:48:49;;;;;;;1.98;1.77;;;17.30;86.30;;;;;;5016937;28;20034;-62
2022/10/14 12:51:18;;;;;;;3.30;1.90;;;17.40;85.70;;;;;;5017208;28;20068;-63
2022/10/14 12:54:12;;;;;;;2.85;2.00;;;17.40;85.40;;;;;;5018239;28;20033;-62
2022/10/14 12:56:46;;;;;;;2.63;2.00;;;17.40;85.60;;;;;;5007909;28;20133;-63
2022/10/14 12:59:39;;;;;;;2.58;1.98;;;17.50;85.30;;;;;;5016497;28;20056;-62
2022/10/14 13:02:31;;;;;;;2.47;1.95;;;17.50;84.60;;;;;;5015954;28;20270;-62
2022/10/14 13:05:03;;;;;;;4.65;1.95;;;17.60;84.60;;;;;;5014655;28;20038;-60
2022/10/14 13:07:37;;;;;;;1.85;1.73;;;17.60;84.40;;;;;;5012518;28;20495;-62
2022/10/14 13:10:24;;;;;;;2.40;2.05;;;17.60;84.10;;;;;;5015427;28;20138;-62
2022/10/14 13:12:50;;;;;;;2.03;1.83;;;17.70;83.70;;;;;;5010314;28;20037;-63